Time;durP1;ratioP1;P1;durP2;ratioP2;P2;SDS_P1;SDS_P2;PMS_P1;PMS_P2;Temp;Humidity;BMP_temperature;BMP_pressure;BME280_temperature;BME280_humidity;BME280_pressure;Samples;Min_cycle;Max_cycle;Signal;HPM_P1;HPM_P2
2024/04/02 00:00:23;;;;;;;0.00;0.00;;;;;;;10.01;65.71;99492.66;15661950;28;20128;-47
2024/04/02 00:07:59;;;;;;;0.00;0.00;;;;;;;10.23;64.02;99502.50;15669486;28;20443;-46
2024/04/02 00:15:34;;;;;;;0.00;0.00;;;;;;;10.25;63.75;99514.88;15661716;28;20060;-50
2024/04/02 00:23:08;;;;;;;0.00;0.00;;;;;;;10.36;63.27;99508.69;15669662;28;20048;-47
2024/04/02 00:30:46;;;;;;;0.00;0.00;;;;;;;10.28;64.18;99514.41;15663431;28;20042;-49
2024/04/02 00:38:20;;;;;;;0.00;0.00;;;;;;;10.62;63.78;99524.19;15661575;28;20043;-49
2024/04/02 00:45:55;;;;;;;0.00;0.00;;;;;;;10.90;62.65;99517.97;15674170;28;20044;-50
2024/04/02 00:53:29;;;;;;;0.00;0.00;;;;;;;10.45;63.35;99528.69;15658423;28;20124;-49
2024/04/02 01:01:05;;;;;;;0.00;0.00;;;;;;;9.93;65.17;99537.53;15673790;28;20064;-51
2024/04/02 01:08:46;;;;;;;;;;;;;;;10.19;64.79;99544.25;15645215;28;20063;-50
2024/04/02 01:16:27;;;;;;;0.28;0.28;;;;;;;10.31;65.00;99540.75;15675789;28;19920;-46
2024/04/02 01:24:01;;;;;;;0.00;0.00;;;;;;;10.21;65.77;99536.78;15650750;28;20116;-49
2024/04/02 01:31:37;;;;;;;0.10;0.10;;;;;;;10.00;66.91;99548.13;15635807;22;20068;-48
2024/04/02 01:39:10;;;;;;;0.10;0.08;;;;;;;9.57;68.62;99548.53;15611236;28;20060;-51
2024/04/02 01:46:45;;;;;;;0.08;0.08;;;;;;;9.83;68.06;99565.97;15606319;28;20426;-48
2024/04/02 01:54:19;;;;;;;0.00;0.00;;;;;;;9.30;70.58;99558.84;15571072;28;20049;-51
2024/04/02 02:01:55;;;;;;;0.00;0.00;;;;;;;9.62;69.68;99570.06;15595147;28;20069;-51
2024/04/02 02:09:31;;;;;;;0.00;0.00;;;;;;;9.35;70.34;99578.53;15610841;28;20495;-48
2024/04/02 02:17:08;;;;;;;0.00;0.00;;;;;;;9.62;69.82;99578.09;15606896;28;20042;-51
2024/04/02 02:24:42;;;;;;;0.00;0.00;;;;;;;9.04;71.77;99593.00;15588999;28;20042;-52
2024/04/02 02:32:18;;;;;;;0.00;0.00;;;;;;;9.12;72.03;99589.19;15579081;28;20621;-50
2024/04/02 02:39:54;;;;;;;0.00;0.00;;;;;;;8.88;73.62;99597.16;15606969;28;20521;-49
2024/04/02 02:47:29;;;;;;;0.10;0.10;;;;;;;8.84;73.42;99577.25;15602830;28;20512;-52
2024/04/02 02:55:03;;;;;;;0.00;0.00;;;;;;;8.60;74.48;99586.22;15595820;28;20061;-55
2024/04/02 03:02:41;;;;;;;0.00;0.00;;;;;;;8.71;74.39;99598.00;15603232;28;20039;-51
2024/04/02 03:10:15;;;;;;;0.00;0.00;;;;;;;9.03;73.56;99598.59;15609626;28;20037;-48
2024/04/02 03:17:50;;;;;;;0.00;0.00;;;;;;;8.97;73.13;99604.88;15587219;28;20048;-50
2024/04/02 03:25:24;;;;;;;0.00;0.00;;;;;;;8.90;74.56;99613.78;15617588;28;20100;-55
2024/04/02 03:33:01;;;;;;;0.10;0.10;;;;;;;8.89;73.61;99611.34;15604742;28;20458;-50
2024/04/02 03:40:43;;;;;;;0.00;0.00;;;;;;;8.95;74.03;99597.03;15597630;28;20502;-52
2024/04/02 03:48:18;;;;;;;0.17;0.13;;;;;;;9.03;74.15;99602.09;15620852;28;20045;-51
2024/04/02 03:55:57;;;;;;;0.00;0.00;;;;;;;9.33;73.28;99610.09;15616747;28;20052;-52
2024/04/02 04:03:36;;;;;;;0.10;0.10;;;;;;;9.35;73.66;99618.69;15611201;28;20253;-50
2024/04/02 04:11:13;;;;;;;0.08;0.08;;;;;;;9.44;73.37;99628.03;15611482;28;20100;-49
2024/04/02 04:18:53;;;;;;;0.30;0.30;;;;;;;9.35;73.55;99644.66;15594252;28;20034;-52
2024/04/02 04:26:27;;;;;;;0.00;0.00;;;;;;;9.64;72.79;99646.47;15600391;28;20037;-48
2024/04/02 04:34:03;;;;;;;0.00;0.00;;;;;;;9.58;73.02;99659.97;15612170;28;20537;-48
2024/04/02 04:41:36;;;;;;;0.00;0.00;;;;;;;9.38;73.75;99649.56;15615306;28;20125;-53
2024/04/02 04:49:29;;;;;;;0.00;0.00;;;;;;;9.08;74.98;99647.72;15598545;28;20124;-51
2024/04/02 04:57:05;;;;;;;0.00;0.00;;;;;;;9.35;74.28;99652.69;15601820;28;20061;-52
2024/04/02 05:04:52;;;;;;;0.00;0.00;;;;;;;9.10;75.14;99663.56;15616570;28;20129;-50
2024/04/02 05:12:36;;;;;;;0.00;0.00;;;;;;;9.06;75.86;99667.75;15591671;28;20432;-52
2024/04/02 05:20:12;;;;;;;0.00;0.00;;;;;;;10.02;72.20;99676.56;15582218;28;20065;-52
2024/04/02 05:27:45;;;;;;;0.13;0.13;;;;;;;10.42;70.19;99679.41;15582589;28;20421;-49
2024/04/02 05:35:22;;;;;;;0.10;0.10;;;;;;;9.91;72.17;99686.25;15568576;28;20167;-50
2024/04/02 05:42:55;;;;;;;0.65;0.28;;;;;;;10.28;71.75;99691.41;15566307;28;20282;-48
2024/04/02 05:50:31;;;;;;;0.25;0.25;;;;;;;10.44;70.95;99685.31;15583409;28;20376;-50
2024/04/02 05:58:06;;;;;;;0.08;0.08;;;;;;;10.02;71.99;99682.75;15607218;28;20045;-54
2024/04/02 06:05:42;;;;;;;0.00;0.00;;;;;;;10.78;69.62;99685.53;15574608;28;20033;-52
2024/04/02 06:13:15;;;;;;;0.00;0.00;;;;;;;10.84;69.46;99676.50;15599293;28;20087;-50
2024/04/02 06:20:58;;;;;;;0.10;0.10;;;;;;;11.05;68.27;99680.41;15611219;28;20132;-51
2024/04/02 06:28:32;;;;;;;0.00;0.00;;;;;;;11.33;67.17;99679.56;15610446;28;20034;-52
2024/04/02 06:36:13;;;;;;;0.00;0.00;;;;;;;11.67;65.10;99689.34;15609186;28;20042;-50
2024/04/02 06:43:46;;;;;;;0.00;0.00;;;;;;;12.72;61.49;99679.59;15610833;28;20103;-50
2024/04/02 06:51:22;;;;;;;0.00;0.00;;;;;;;12.70;61.41;99686.31;15596164;28;20529;-50
2024/04/02 06:58:57;;;;;;;0.00;0.00;;;;;;;12.76;61.01;99698.78;15602034;28;20048;-52
2024/04/02 07:06:32;;;;;;;0.30;0.30;;;;;;;12.70;60.68;99703.28;15609413;28;20048;-53
2024/04/02 07:14:07;;;;;;;0.00;0.00;;;;;;;12.70;60.50;99711.34;15576994;28;20471;-55
2024/04/02 07:21:42;;;;;;;4.97;1.00;;;;;;;12.82;59.82;99718.50;15595176;28;20069;-51
2024/04/02 07:29:17;;;;;;;0.20;0.20;;;;;;;13.65;58.11;99719.19;15659957;23;20048;-49
2024/04/02 07:36:53;;;;;;;0.05;0.05;;;;;;;13.62;57.32;99733.19;15695579;28;20062;-46
2024/04/02 07:44:29;;;;;;;0.00;0.00;;;;;;;13.88;56.49;99745.00;15701520;28;20048;-50
2024/04/02 07:52:05;;;;;;;0.00;0.00;;;;;;;12.76;59.79;99758.81;15699885;28;20458;-48
2024/04/02 07:59:39;;;;;;;0.08;0.08;;;;;;;12.30;60.69;99778.06;15711290;28;20033;-50
2024/04/02 08:07:17;;;;;;;0.00;0.00;;;;;;;12.48;60.38;99788.56;15693593;28;20025;-46
2024/04/02 08:14:52;;;;;;;0.03;0.03;;;;;;;12.51;60.21;99782.69;15687240;28;20135;-49
2024/04/02 08:22:27;;;;;;;0.00;0.00;;;;;;;12.64;60.73;99795.81;15703174;28;20040;-49
2024/04/02 08:30:00;;;;;;;0.05;0.05;;;;;;;12.66;60.06;99790.19;15663689;28;130423;-51
2024/04/02 08:37:37;;;;;;;0.25;0.13;;;;;;;13.28;57.82;99804.22;15603104;28;20048;-52
2024/04/02 08:46:17;;;;;;;0.00;0.00;;;;;;;14.38;55.06;99809.41;15678039;28;20390;-46
2024/04/02 08:53:52;;;;;;;0.00;0.00;;;;;;;13.98;55.50;99797.16;15528301;28;20034;-55
2024/04/02 09:01:28;;;;;;;0.25;0.25;;;;;;;13.60;54.93;99806.22;15506585;28;20034;-52
2024/04/02 09:09:04;;;;;;;0.00;0.00;;;;;;;14.08;54.89;99804.53;15511649;28;20149;-52
2024/04/02 09:16:44;;;;;;;0.00;0.00;;;;;;;13.95;54.75;99823.88;15520677;28;20055;-53
2024/04/02 09:24:18;;;;;;;0.08;0.08;;;;;;;13.30;56.04;99819.38;15527017;28;20061;-52
2024/04/02 09:31:54;;;;;;;0.00;0.00;;;;;;;13.46;56.20;99830.06;15541743;28;20124;-53
2024/04/02 09:39:31;;;;;;;0.10;0.10;;;;;;;15.75;50.61;99836.41;15564223;28;20117;-54
2024/04/02 09:47:07;;;;;;;0.00;0.00;;;;;;;16.15;46.89;99834.88;15550748;28;20046;-53
2024/04/02 09:54:44;;;;;;;0.00;0.00;;;;;;;14.48;50.41;99833.00;15514351;28;20034;-52
2024/04/02 10:02:23;;;;;;;0.00;0.00;;;;;;;13.46;52.64;99845.44;15492393;28;20043;-51
2024/04/02 10:10:00;;;;;;;0.00;0.00;;;;;;;13.53;53.10;99835.28;15497068;28;20042;-49
2024/04/02 10:17:38;;;;;;;0.65;0.20;;;;;;;14.14;51.36;99846.72;15493901;28;20042;-47
2024/04/02 10:25:13;;;;;;;0.00;0.00;;;;;;;15.44;49.25;99830.06;15495499;28;20052;-51
2024/04/02 10:32:55;;;;;;;0.00;0.00;;;;;;;16.08;45.04;99835.13;15525159;28;20047;-49
2024/04/02 10:40:32;;;;;;;0.20;0.20;;;;;;;14.75;47.74;99844.53;15510956;28;20045;-49
2024/04/02 10:48:10;;;;;;;0.00;0.00;;;;;;;14.43;50.36;99844.53;15519860;28;20046;-51
2024/04/02 10:55:44;;;;;;;0.00;0.00;;;;;;;15.18;48.89;99858.06;15530205;28;20038;-50
2024/04/02 11:03:24;;;;;;;0.00;0.00;;;;;;;14.22;49.98;99869.72;15521097;28;20379;-50
2024/04/02 11:11:00;;;;;;;0.13;0.10;;;;;;;13.69;50.86;99869.44;15513712;28;20049;-49
2024/04/02 11:18:39;;;;;;;0.00;0.00;;;;;;;14.24;50.47;99873.00;15504948;28;20121;-51
2024/04/02 11:26:16;;;;;;;0.00;0.00;;;;;;;13.76;51.27;99870.06;15504819;28;20417;-46
2024/04/02 11:33:52;;;;;;;0.00;0.00;;;;;;;14.56;50.18;99880.31;15505672;28;20049;-50
2024/04/02 11:41:27;;;;;;;0.00;0.00;;;;;;;13.33;51.50;99891.63;15521838;28;20072;-52
2024/04/02 11:49:04;;;;;;;0.00;0.00;;;;;;;13.59;51.81;99895.47;15537045;28;20045;-49
2024/04/02 12:04:27;;;;;;;0.00;0.00;;;;;;;16.08;48.58;99904.69;15498691;28;20074;-49
2024/04/02 12:12:05;;;;;;;2.35;2.15;;;;;;;14.69;48.87;99907.72;15481538;28;20038;-51
2024/04/02 12:19:43;;;;;;;0.32;0.30;;;;;;;14.11;48.92;99903.06;15487948;28;20467;-52
2024/04/02 12:27:20;;;;;;;34.40;0.70;;;;;;;14.89;48.38;99915.16;15482830;28;20313;-54
2024/04/02 12:34:55;;;;;;;0.00;0.00;;;;;;;15.24;48.31;99919.16;15482076;28;20503;-54
2024/04/02 12:42:30;;;;;;;0.00;0.00;;;;;;;16.17;44.84;99900.38;15483471;28;20038;-50
2024/04/02 12:50:07;;;;;;;0.00;0.00;;;;;;;14.59;47.69;99906.78;15484675;28;20058;-51
2024/04/02 12:57:47;;;;;;;0.00;0.00;;;;;;;14.40;48.99;99904.44;15489895;28;20047;-52
2024/04/02 13:05:22;;;;;;;2.38;1.25;;;;;;;14.87;49.28;99930.81;15488476;28;20039;-50
2024/04/02 13:12:56;;;;;;;0.00;0.00;;;;;;;14.43;49.63;99925.53;15479721;28;20118;-52
2024/04/02 13:20:33;;;;;;;0.65;0.65;;;;;;;13.52;58.06;99928.84;15484207;28;20073;-52
2024/04/02 13:28:07;;;;;;;0.00;0.00;;;;;;;13.97;56.35;99938.53;15487299;28;20107;-50
2024/04/02 13:35:45;;;;;;;0.43;0.35;;;;;;;13.79;53.77;99953.16;15502040;28;20049;-47
2024/04/02 13:43:20;;;;;;;0.00;0.00;;;;;;;12.14;64.53;100011.84;15482186;28;20039;-53
2024/04/02 13:51:04;;;;;;;0.00;0.00;;;;;;;12.04;66.38;99974.00;15515115;28;20064;-50
2024/04/02 13:58:38;;;;;;;;;;;;;;;13.02;66.43;99966.59;15496679;28;20042;-51
2024/04/02 14:06:14;;;;;;;0.00;0.00;;;;;;;12.82;64.16;99963.56;15508479;28;19933;-51
2024/04/02 14:13:50;;;;;;;0.00;0.00;;;;;;;12.88;62.24;99959.91;15498642;28;20118;-50
2024/04/02 14:21:27;;;;;;;0.00;0.00;;;;;;;13.43;59.72;99965.38;15557077;28;20036;-51
2024/04/02 14:29:00;;;;;;;0.00;0.00;;;;;;;13.42;58.27;99952.13;15569726;28;20042;-50
2024/04/02 14:36:38;;;;;;;0.00;0.00;;;;;;;13.96;59.20;99953.09;15515161;28;20039;-47
2024/04/02 14:44:13;;;;;;;0.00;0.00;;;;;;;13.35;59.24;99956.88;15536701;28;20040;-53
2024/04/02 14:51:50;;;;;;;0.00;0.00;;;;;;;13.70;58.28;99960.06;15608280;28;20045;-49
2024/04/02 14:59:26;;;;;;;0.00;0.00;;;;;;;13.57;57.32;99965.84;15487530;28;20383;-52
2024/04/02 15:07:02;;;;;;;0.00;0.00;;;;;;;13.76;56.06;99952.88;15498621;28;20540;-50
2024/04/02 15:14:37;;;;;;;1.13;0.47;;;;;;;13.86;54.51;99960.28;15492577;28;20121;-49
2024/04/02 15:22:14;;;;;;;0.00;0.00;;;;;;;13.63;53.52;99970.22;15504531;28;20063;-50
2024/04/02 15:29:48;;;;;;;0.00;0.00;;;;;;;13.75;53.94;99968.22;15484479;28;20043;-50
2024/04/02 15:37:24;;;;;;;1.13;0.30;;;;;;;14.02;53.30;99962.88;15507254;28;20055;-53
2024/04/02 15:44:58;;;;;;;0.00;0.00;;;;;;;13.67;51.37;99963.28;15487468;28;20034;-49
2024/04/02 15:52:38;;;;;;;0.00;0.00;;;;;;;13.28;50.71;99978.59;15507385;28;20038;-51
2024/04/02 16:00:15;;;;;;;0.00;0.00;;;;;;;13.20;51.92;99979.00;15487437;28;20039;-51
2024/04/02 16:07:52;;;;;;;0.00;0.00;;;;;;;13.64;50.94;99989.91;15512243;28;20153;-51
2024/04/02 16:15:28;;;;;;;0.03;0.03;;;;;;;13.25;51.38;99977.25;15530842;28;20061;-54
2024/04/02 16:23:04;;;;;;;0.00;0.00;;;;;;;13.34;51.90;99974.94;15505034;28;20062;-50
2024/04/02 16:30:38;;;;;;;0.20;0.10;;;;;;;13.00;53.43;99979.47;15497279;28;20047;-51
2024/04/02 16:38:13;;;;;;;0.50;0.35;;;;;;;13.16;53.46;99986.75;15498366;28;20115;-51
2024/04/02 16:45:49;;;;;;;0.00;0.00;;;;;;;13.00;52.97;99972.22;15490425;28;20153;-53
2024/04/02 16:53:25;;;;;;;1.25;0.90;;;;;;;12.93;51.50;99989.63;15496693;28;20042;-51
2024/04/02 17:01:02;;;;;;;0.00;0.00;;;;;;;12.69;50.75;100000.53;15482552;28;20046;-48
2024/04/02 17:08:40;;;;;;;0.65;0.45;;;;;;;12.98;50.88;99979.75;15511927;28;20146;-50
2024/04/02 17:16:14;;;;;;;0.10;0.10;;;;;;;12.89;50.46;99985.78;15495677;28;20035;-51
2024/04/02 17:23:49;;;;;;;0.00;0.00;;;;;;;12.69;51.30;99989.75;15518934;28;20047;-51
2024/04/02 17:31:23;;;;;;;0.00;0.00;;;;;;;12.66;51.98;99990.22;15510946;28;20560;-50
2024/04/02 17:38:59;;;;;;;0.00;0.00;;;;;;;12.52;52.26;99986.22;15502970;28;20111;-51
2024/04/02 17:46:35;;;;;;;0.00;0.00;;;;;;;12.46;52.39;99996.06;15518624;28;20065;-49
2024/04/02 17:54:10;;;;;;;0.40;0.40;;;;;;;12.32;53.06;99994.72;15517698;28;20138;-52
2024/04/02 18:01:51;;;;;;;0.00;0.00;;;;;;;12.21;53.37;100006.31;15509358;28;20121;-52
2024/04/02 18:09:27;;;;;;;0.00;0.00;;;;;;;11.97;53.49;100006.38;15493337;28;20572;-51
2024/04/02 18:17:03;;;;;;;0.00;0.00;;;;;;;12.09;53.93;100022.50;15508324;28;20058;-50
2024/04/02 18:24:39;;;;;;;0.20;0.20;;;;;;;12.28;53.53;100033.13;15494223;28;20034;-51
2024/04/02 18:32:14;;;;;;;0.10;0.10;;;;;;;12.32;53.88;100027.00;15521284;28;20040;-49
2024/04/02 18:39:50;;;;;;;0.00;0.00;;;;;;;12.08;54.38;100033.53;15498368;28;20035;-52
2024/04/02 18:47:24;;;;;;;0.00;0.00;;;;;;;12.36;53.66;100044.31;15502187;28;20129;-55
2024/04/02 18:55:04;;;;;;;0.00;0.00;;;;;;;12.24;54.05;100055.09;15489954;28;20467;-49
2024/04/02 19:02:38;;;;;;;0.00;0.00;;;;;;;12.27;54.67;100047.63;15489806;28;20044;-46
2024/04/02 19:10:14;;;;;;;0.00;0.00;;;;;;;11.75;59.66;100057.28;15497651;28;20121;-45
2024/04/02 19:17:48;;;;;;;0.00;0.00;;;;;;;11.63;60.87;100051.06;15513653;28;20402;-50
2024/04/02 19:25:23;;;;;;;0.10;0.10;;;;;;;11.65;60.63;100056.19;15508030;28;20070;-49
2024/04/02 19:32:57;;;;;;;0.00;0.00;;;;;;;11.86;59.93;100065.59;15488452;28;20035;-54
2024/04/02 19:40:35;;;;;;;0.35;0.20;;;;;;;11.85;59.52;100066.66;15487538;28;20386;-48
2024/04/02 19:48:09;;;;;;;0.30;0.28;;;;;;;11.50;60.13;100052.09;15503988;28;20485;-50
2024/04/02 19:55:45;;;;;;;0.57;0.22;;;;;;;11.70;59.86;100064.38;15503686;28;20418;-46
2024/04/02 20:03:19;;;;;;;0.13;0.10;;;;;;;11.49;60.07;100063.91;15492237;28;20483;-47
2024/04/02 20:10:55;;;;;;;0.00;0.00;;;;;;;11.39;61.40;100065.53;15487804;28;20047;-48
2024/04/02 20:18:29;;;;;;;0.30;0.30;;;;;;;11.33;62.49;100061.94;15504016;28;20042;-49
2024/04/02 20:26:05;;;;;;;0.00;0.00;;;;;;;11.80;61.19;100069.16;15503613;28;20046;-50
2024/04/02 20:33:42;;;;;;;0.13;0.10;;;;;;;11.13;63.65;100064.91;15501626;28;20043;-46
2024/04/02 20:41:18;;;;;;;0.00;0.00;;;;;;;11.49;63.26;100061.22;15458313;28;20043;-47
2024/04/02 20:48:53;;;;;;;0.00;0.00;;;;;;;11.46;63.32;100060.88;15489533;28;20048;-48
2024/04/02 20:56:29;;;;;;;0.00;0.00;;;;;;;11.13;64.74;100062.22;15591255;22;20052;-51
2024/04/02 21:04:03;;;;;;;0.00;0.00;;;;;;;10.92;65.82;100062.75;15580429;28;20538;-48
2024/04/02 21:11:38;;;;;;;0.00;0.00;;;;;;;11.21;64.96;100064.56;15545771;28;20514;-49
2024/04/02 21:19:12;;;;;;;0.00;0.00;;;;;;;11.03;65.55;100064.66;15546934;28;20122;-49
2024/04/02 21:26:47;;;;;;;0.00;0.00;;;;;;;10.89;66.03;100061.34;15547374;28;20406;-49
2024/04/02 21:34:21;;;;;;;0.00;0.00;;;;;;;10.96;66.06;100062.09;15544900;28;20060;-51
2024/04/02 21:42:06;;;;;;;0.00;0.00;;;;;;;10.93;66.01;100057.16;15530965;28;20044;-51
2024/04/02 21:49:40;;;;;;;0.00;0.00;;;;;;;10.94;65.73;100045.38;15544555;28;20069;-48
2024/04/02 21:57:16;;;;;;;0.00;0.00;;;;;;;10.63;66.99;100059.03;15555807;28;20125;-48
2024/04/02 22:04:50;;;;;;;0.00;0.00;;;;;;;10.95;65.73;100047.00;15556878;28;20030;-48
2024/04/02 22:12:30;;;;;;;0.10;0.10;;;;;;;10.50;68.26;100057.34;15556489;28;20046;-50
2024/04/02 22:20:22;;;;;;;;;;;;;;;10.55;69.24;100049.44;15556427;28;20554;-48
2024/04/02 22:28:15;;;;;;;0.00;0.00;;;;;;;10.72;68.14;100049.59;15557214;28;20079;-50
2024/04/02 22:36:08;;;;;;;0.00;0.00;;;;;;;10.58;69.08;100043.59;15545460;28;20045;-49
2024/04/02 22:44:01;;;;;;;0.00;0.00;;;;;;;10.50;70.08;100049.31;15557762;28;20061;-49
2024/04/02 22:51:35;;;;;;;0.00;0.00;;;;;;;10.25;73.75;100056.63;15551635;28;20121;-50
2024/04/02 22:59:10;;;;;;;0.00;0.00;;;;;;;9.89;78.65;100053.72;15567672;28;20074;-48
2024/04/02 23:06:44;;;;;;;0.03;0.03;;;;;;;9.60;79.65;100062.44;15560467;28;20495;-52
2024/04/02 23:14:21;;;;;;;0.00;0.00;;;;;;;9.77;79.25;100060.00;15561799;28;20049;-49
2024/04/02 23:21:57;;;;;;;0.65;0.28;;;;;;;9.69;79.67;100051.22;15557143;28;20096;-50
2024/04/02 23:29:33;;;;;;;0.00;0.00;;;;;;;9.59;79.47;100055.44;15552474;28;20442;-48
2024/04/02 23:37:07;;;;;;;0.00;0.00;;;;;;;9.75;77.68;100054.88;15537735;28;20046;-49
2024/04/02 23:44:44;;;;;;;11.88;0.32;;;;;;;9.76;77.81;100055.69;15551130;28;20030;-48
2024/04/02 23:52:18;;;;;;;0.00;0.00;;;;;;;9.77;76.98;100022.50;15540029;28;20227;-50
2024/04/02 23:59:54;;;;;;;0.10;0.10;;;;;;;9.99;75.30;100030.94;15541460;28;20137;-51
